Time,TemperatureF,DewpointF,PressureIn,WindDirection,WindDirectionDegrees,WindSpeedMPH,WindSpeedGustMPH,Humidity,HourlyPrecipIn,Conditions,Clouds,dailyrainin,SoftwareType,DateUTC
2013-08-13 00:02:00,57.2,51.4,29.51,SW,225,2.0,2.0,81,0.00,,,0.00,meteohub,2013-08-13 07:02:00,
2013-08-13 00:07:00,57.2,51.1,29.51,SW,225,0.0,2.0,80,0.00,,,0.00,meteohub,2013-08-13 07:07:00,
2013-08-13 00:12:00,57.0,50.9,29.51,West,270,0.0,2.0,80,0.00,,,0.00,meteohub,2013-08-13 07:12:00,
2013-08-13 00:17:00,57.0,51.3,29.51,SW,225,2.0,2.0,81,0.00,,,0.00,meteohub,2013-08-13 07:17:00,
2013-08-13 00:23:00,57.4,51.3,29.51,SW,225,0.0,2.0,80,0.00,,,0.00,meteohub,2013-08-13 07:23:00,
2013-08-13 00:28:00,57.2,51.1,29.51,SW,225,0.0,3.0,80,0.00,,,0.00,meteohub,2013-08-13 07:28:00,
2013-08-13 00:33:00,56.8,50.7,29.51,SW,225,0.0,3.0,80,0.00,,,0.00,meteohub,2013-08-13 07:33:00,
2013-08-13 00:38:00,56.5,50.7,29.51,SW,225,0.0,2.0,81,0.00,,,0.00,meteohub,2013-08-13 07:38:00,
2013-08-13 00:43:00,55.9,50.5,29.51,West,270,2.0,0.0,82,0.00,,,0.00,meteohub,2013-08-13 07:43:00,
2013-08-13 00:48:00,56.5,51.4,29.52,SW,225,2.0,2.0,83,0.00,,,0.00,meteohub,2013-08-13 07:48:00,
2013-08-13 00:53:00,56.5,51.1,29.51,SW,225,0.0,2.0,82,0.00,,,0.00,meteohub,2013-08-13 07:53:00,
2013-08-13 00:58:00,56.3,50.9,29.52,SW,225,0.0,2.0,82,0.00,,,0.00,meteohub,2013-08-13 07:58:00,
2013-08-13 01:03:00,55.8,50.4,29.52,SW,225,0.0,2.0,82,0.00,,,0.00,meteohub,2013-08-13 08:03:00,
2013-08-13 01:08:00,55.4,50.7,29.52,SW,225,2.0,2.0,84,0.00,,,0.00,meteohub,2013-08-13 08:08:00,
2013-08-13 01:13:00,55.2,50.7,29.52,SW,225,0.0,2.0,85,0.00,,,0.00,meteohub,2013-08-13 08:13:00,
2013-08-13 01:18:00,55.0,50.9,29.52,SW,225,1.0,2.0,86,0.00,,,0.00,meteohub,2013-08-13 08:18:00,
2013-08-13 01:23:00,55.0,51.3,29.52,SW,225,0.0,2.0,87,0.00,,,0.00,meteohub,2013-08-13 08:23:00,
2013-08-13 01:28:00,55.0,50.9,29.52,SW,225,0.0,2.0,86,0.00,,,0.00,meteohub,2013-08-13 08:28:00,
2013-08-13 01:33:00,54.7,50.2,29.52,SW,225,0.0,2.0,85,0.00,,,0.00,meteohub,2013-08-13 08:33:00,
2013-08-13 01:38:00,54.3,50.2,29.52,SW,225,0.0,1.0,86,0.00,,,0.00,meteohub,2013-08-13 08:38:00,
2013-08-13 01:43:00,54.3,50.5,29.52,SW,225,0.0,0.0,87,0.00,,,0.00,meteohub,2013-08-13 08:43:00,
2013-08-13 01:48:00,54.3,50.5,29.52,SW,225,0.0,0.0,87,0.00,,,0.00,meteohub,2013-08-13 08:48:00,
2013-08-13 01:53:00,54.3,50.5,29.52,SW,225,0.0,0.0,87,0.00,,,0.00,meteohub,2013-08-13 08:53:00,
2013-08-13 01:58:00,54.7,51.3,29.52,SW,225,0.0,0.0,88,0.00,,,0.00,meteohub,2013-08-13 08:58:00,
2013-08-13 02:03:00,55.0,51.3,29.52,SW,225,0.0,0.0,87,0.00,,,0.00,meteohub,2013-08-13 09:03:00,
2013-08-13 02:08:00,54.9,51.1,29.52,SW,225,0.0,1.0,87,0.00,,,0.00,meteohub,2013-08-13 09:08:00,
2013-08-13 02:14:00,54.7,50.9,29.52,SW,225,0.0,1.0,87,0.00,,,0.00,meteohub,2013-08-13 09:14:00,
2013-08-13 02:19:00,54.7,51.3,29.53,SW,225,0.0,1.0,88,0.00,,,0.00,meteohub,2013-08-13 09:19:00,
2013-08-13 02:24:00,54.7,50.9,29.53,SW,225,0.0,0.0,87,0.00,,,0.00,meteohub,2013-08-13 09:24:00,
2013-08-13 02:29:00,54.5,51.1,29.53,SW,225,0.0,0.0,88,0.00,,,0.00,meteohub,2013-08-13 09:29:00,
2013-08-13 02:34:00,54.1,50.7,29.53,SW,225,0.0,0.0,88,0.00,,,0.00,meteohub,2013-08-13 09:34:00,
2013-08-13 02:39:00,53.8,50.4,29.53,SW,225,0.0,0.0,88,0.00,,,0.00,meteohub,2013-08-13 09:39:00,
2013-08-13 02:44:00,53.6,50.4,29.53,SW,225,0.0,0.0,89,0.00,,,0.00,meteohub,2013-08-13 09:44:00,
2013-08-13 02:49:00,53.6,50.7,29.53,SW,225,0.0,0.0,90,0.00,,,0.00,meteohub,2013-08-13 09:49:00,
2013-08-13 02:54:00,53.6,50.7,29.53,SW,225,0.0,0.0,90,0.00,,,0.00,meteohub,2013-08-13 09:54:00,
2013-08-13 02:59:00,53.6,50.7,29.53,SW,225,0.0,0.0,90,0.00,,,0.00,meteohub,2013-08-13 09:59:00,
2013-08-13 03:04:00,53.4,50.5,29.53,SW,225,0.0,0.0,90,0.00,,,0.00,meteohub,2013-08-13 10:04:00,
2013-08-13 03:09:00,53.2,50.4,29.53,SW,225,0.0,0.0,90,0.00,,,0.00,meteohub,2013-08-13 10:09:00,
2013-08-13 03:14:00,53.1,50.2,29.54,SW,225,0.0,0.0,90,0.00,,,0.00,meteohub,2013-08-13 10:14:00,
2013-08-13 03:19:00,53.1,50.2,29.54,SW,225,0.0,0.0,90,0.00,,,0.00,meteohub,2013-08-13 10:19:00,
2013-08-13 03:24:00,53.1,50.5,29.54,SW,225,0.0,0.0,91,0.00,,,0.00,meteohub,2013-08-13 10:24:00,
2013-08-13 03:29:00,53.1,50.2,29.54,SW,225,0.0,0.0,90,0.00,,,0.00,meteohub,2013-08-13 10:29:00,
2013-08-13 03:34:00,52.9,50.0,29.54,SW,225,0.0,0.0,90,0.00,,,0.00,meteohub,2013-08-13 10:34:00,
2013-08-13 03:39:00,52.7,50.2,29.54,SW,225,0.0,0.0,91,0.00,,,0.00,meteohub,2013-08-13 10:39:00,
2013-08-13 03:44:00,52.7,50.2,29.54,SW,225,0.0,0.0,91,0.00,,,0.00,meteohub,2013-08-13 10:44:00,
2013-08-13 03:50:00,52.7,50.4,29.54,West,270,2.0,0.0,92,0.00,,,0.00,meteohub,2013-08-13 10:50:00,
2013-08-13 03:55:00,52.9,50.5,29.54,West,270,0.0,1.0,92,0.00,,,0.00,meteohub,2013-08-13 10:55:00,
2013-08-13 04:00:00,53.1,50.5,29.54,SW,225,2.0,2.0,91,0.00,,,0.00,meteohub,2013-08-13 11:00:00,
2013-08-13 04:05:00,53.1,50.5,29.54,SW,225,2.0,2.0,91,0.00,,,0.00,meteohub,2013-08-13 11:05:00,
2013-08-13 04:10:00,53.1,50.5,29.54,SW,225,0.0,2.0,91,0.00,,,0.00,meteohub,2013-08-13 11:10:00,
2013-08-13 04:15:00,53.1,50.5,29.54,SW,225,0.0,2.0,91,0.00,,,0.00,meteohub,2013-08-13 11:15:00,
2013-08-13 04:20:00,52.9,50.5,29.54,SW,225,0.0,2.0,92,0.00,,,0.00,meteohub,2013-08-13 11:20:00,
2013-08-13 04:25:00,52.9,50.5,29.54,SW,225,0.0,0.0,92,0.00,,,0.00,meteohub,2013-08-13 11:25:00,
2013-08-13 04:30:00,53.1,50.7,29.54,North,0,0.0,0.0,92,0.00,,,0.00,meteohub,2013-08-13 11:30:00,
2013-08-13 04:35:00,53.1,50.7,29.54,North,0,0.0,0.0,92,0.00,,,0.00,meteohub,2013-08-13 11:35:00,
2013-08-13 04:40:00,52.9,50.5,29.53,North,0,0.0,0.0,92,0.00,,,0.00,meteohub,2013-08-13 11:40:00,
2013-08-13 04:45:00,52.5,50.2,29.53,North,0,0.0,0.0,92,0.00,,,0.00,meteohub,2013-08-13 11:45:00,
2013-08-13 04:50:00,52.3,50.0,29.53,NW,315,0.0,0.0,92,0.00,,,0.00,meteohub,2013-08-13 11:50:00,
2013-08-13 04:56:00,52.3,50.7,29.53,North,0,2.0,2.0,94,0.00,,,0.00,meteohub,2013-08-13 11:56:00,
2013-08-13 05:01:00,52.3,50.7,29.54,North,0,2.0,2.0,94,0.00,,,0.00,meteohub,2013-08-13 12:01:00,
2013-08-13 05:06:00,52.0,50.4,29.54,North,0,3.0,3.0,94,0.00,,,0.00,meteohub,2013-08-13 12:06:00,
2013-08-13 05:11:00,51.8,50.2,29.53,North,0,2.0,3.0,94,0.00,,,0.00,meteohub,2013-08-13 12:11:00,
2013-08-13 05:16:00,51.6,50.2,29.54,North,0,2.0,3.0,95,0.00,,,0.00,meteohub,2013-08-13 12:16:00,
2013-08-13 05:21:00,51.6,50.5,29.54,NE,45,2.0,3.0,96,0.00,,,0.00,meteohub,2013-08-13 12:21:00,
2013-08-13 05:26:00,51.6,50.5,29.54,North,0,1.0,2.0,96,0.00,,,0.00,meteohub,2013-08-13 12:26:00,
2013-08-13 05:31:00,51.4,50.4,29.54,North,0,0.0,2.0,96,0.00,,,0.00,meteohub,2013-08-13 12:31:00,
2013-08-13 05:36:00,51.1,50.0,29.54,North,0,0.0,2.0,96,0.00,,,0.00,meteohub,2013-08-13 12:36:00,
2013-08-13 05:41:00,50.9,49.5,29.54,North,0,0.0,2.0,95,0.00,,,0.00,meteohub,2013-08-13 12:41:00,
2013-08-13 05:46:00,50.7,49.6,29.54,North,0,0.0,0.0,96,0.00,,,0.00,meteohub,2013-08-13 12:46:00,
2013-08-13 05:51:00,50.5,49.5,29.54,North,0,0.0,0.0,96,0.00,,,0.00,meteohub,2013-08-13 12:51:00,
2013-08-13 05:56:00,50.5,49.5,29.54,North,0,0.0,0.0,96,0.00,,,0.00,meteohub,2013-08-13 12:56:00,
2013-08-13 06:02:00,50.2,49.1,29.54,North,0,0.0,0.0,96,0.00,,,0.00,meteohub,2013-08-13 13:02:00,
2013-08-13 06:07:00,50.2,49.1,29.54,North,0,0.0,0.0,96,0.00,,,0.00,meteohub,2013-08-13 13:07:00,
2013-08-13 06:12:00,50.0,48.9,29.54,North,0,0.0,0.0,96,0.00,,,0.00,meteohub,2013-08-13 13:12:00,
2013-08-13 06:17:00,50.0,49.1,29.54,North,0,0.0,0.0,97,0.00,,,0.00,meteohub,2013-08-13 13:17:00,
2013-08-13 06:22:00,50.2,49.3,29.54,North,0,0.0,0.0,97,0.00,,,0.00,meteohub,2013-08-13 13:22:00,
2013-08-13 06:27:00,50.4,49.5,29.54,North,0,0.0,0.0,97,0.00,,,0.00,meteohub,2013-08-13 13:27:00,
2013-08-13 06:32:00,50.5,49.6,29.54,North,0,0.0,0.0,97,0.00,,,0.00,meteohub,2013-08-13 13:32:00,
2013-08-13 06:37:00,50.7,50.2,29.54,North,0,0.0,0.0,98,0.00,,,0.00,meteohub,2013-08-13 13:37:00,
2013-08-13 06:42:00,50.7,50.2,29.54,North,0,1.0,0.0,98,0.00,,,0.00,meteohub,2013-08-13 13:42:00,
2013-08-13 06:47:00,50.9,50.4,29.54,North,0,0.0,1.0,98,0.00,,,0.00,meteohub,2013-08-13 13:47:00,
2013-08-13 06:52:00,51.1,50.5,29.54,North,0,0.0,1.0,98,0.00,,,0.00,meteohub,2013-08-13 13:52:00,
2013-08-13 06:57:00,51.3,50.7,29.54,North,0,0.0,1.0,98,0.00,,,0.00,meteohub,2013-08-13 13:57:00,
2013-08-13 07:02:00,51.3,50.7,29.54,North,0,0.0,0.0,98,0.00,,,0.00,meteohub,2013-08-13 14:02:00,
2013-08-13 07:07:00,51.6,51.1,29.54,North,0,0.0,0.0,98,0.00,,,0.00,meteohub,2013-08-13 14:07:00,
2013-08-13 07:12:00,51.8,51.3,29.54,North,0,0.0,0.0,98,0.00,,,0.00,meteohub,2013-08-13 14:12:00,
2013-08-13 07:18:00,52.2,51.6,29.54,North,0,0.0,0.0,98,0.00,,,0.00,meteohub,2013-08-13 14:18:00,
2013-08-13 07:23:00,52.7,52.2,29.54,North,0,0.0,1.0,98,0.00,,,0.00,meteohub,2013-08-13 14:23:00,
2013-08-13 07:28:00,53.1,52.5,29.53,North,0,0.0,1.0,98,0.00,,,0.00,meteohub,2013-08-13 14:28:00,
2013-08-13 07:33:00,53.6,53.1,29.53,North,0,0.0,1.0,98,0.00,,,0.00,meteohub,2013-08-13 14:33:00,
2013-08-13 07:38:00,54.1,53.2,29.53,NE,45,0.0,0.0,97,0.00,,,0.00,meteohub,2013-08-13 14:38:00,
2013-08-13 07:43:00,54.9,54.0,29.53,NE,45,0.0,0.0,97,0.00,,,0.00,meteohub,2013-08-13 14:43:00,
2013-08-13 07:48:00,55.6,54.5,29.53,NE,45,2.0,2.0,96,0.00,,,0.00,meteohub,2013-08-13 14:48:00,
2013-08-13 07:53:00,56.5,54.1,29.53,North,0,2.0,3.0,92,0.00,,,0.00,meteohub,2013-08-13 14:53:00,
2013-08-13 07:58:00,57.6,54.7,29.54,North,0,1.0,3.0,90,0.00,,,0.00,meteohub,2013-08-13 14:58:00,
2013-08-13 08:03:00,59.5,55.9,29.54,North,0,1.0,3.0,88,0.00,,,0.00,meteohub,2013-08-13 15:03:00,
2013-08-13 08:08:00,62.8,58.8,29.54,NE,45,0.0,2.0,87,0.00,,,0.00,meteohub,2013-08-13 15:08:00,
2013-08-13 08:13:00,65.7,60.4,29.55,East,90,0.0,2.0,83,0.00,,,0.00,meteohub,2013-08-13 15:13:00,
2013-08-13 08:18:00,68.5,60.6,29.54,East,90,2.0,2.0,76,0.00,,,0.00,meteohub,2013-08-13 15:18:00,
2013-08-13 08:24:00,69.1,57.7,29.54,East,90,3.0,3.0,67,0.00,,,0.00,meteohub,2013-08-13 15:24:00,
2013-08-13 08:29:00,68.4,56.1,29.54,East,90,2.0,2.0,65,0.00,,,0.00,meteohub,2013-08-13 15:29:00,
2013-08-13 08:34:00,67.8,56.1,29.54,SE,135,1.0,3.0,66,0.00,,,0.00,meteohub,2013-08-13 15:34:00,
2013-08-13 08:39:00,68.2,55.9,29.54,East,90,2.0,3.0,65,0.00,,,0.00,meteohub,2013-08-13 15:39:00,
2013-08-13 08:44:00,68.5,56.3,29.54,North,0,2.0,3.0,65,0.00,,,0.00,meteohub,2013-08-13 15:44:00,
2013-08-13 08:49:00,68.4,54.9,29.54,NW,315,2.0,3.0,62,0.00,,,0.00,meteohub,2013-08-13 15:49:00,
2013-08-13 08:54:00,68.4,54.9,29.54,NE,45,2.0,3.0,62,0.00,,,0.00,meteohub,2013-08-13 15:54:00,
2013-08-13 08:59:00,68.7,55.2,29.54,NE,45,3.0,3.0,62,0.00,,,0.00,meteohub,2013-08-13 15:59:00,
2013-08-13 09:04:00,68.9,55.8,29.54,East,90,2.0,4.0,63,0.00,,,0.00,meteohub,2013-08-13 16:04:00,
2013-08-13 09:09:00,69.3,54.9,29.53,NE,45,3.0,4.0,60,0.00,,,0.00,meteohub,2013-08-13 16:09:00,
2013-08-13 09:14:00,68.9,56.3,29.54,North,0,2.0,4.0,64,0.00,,,0.00,meteohub,2013-08-13 16:14:00,
2013-08-13 09:19:00,70.5,56.8,29.54,NW,315,2.0,4.0,62,0.00,,,0.00,meteohub,2013-08-13 16:19:00,
2013-08-13 09:24:00,70.5,56.5,29.53,NE,45,1.0,4.0,61,0.00,,,0.00,meteohub,2013-08-13 16:24:00,
2013-08-13 09:29:00,70.0,55.4,29.53,NE,45,3.0,4.0,60,0.00,,,0.00,meteohub,2013-08-13 16:29:00,
2013-08-13 09:34:00,70.0,55.4,29.53,NE,45,2.0,6.0,60,0.00,,,0.00,meteohub,2013-08-13 16:34:00,
2013-08-13 09:39:00,69.8,55.2,29.53,East,90,4.0,6.0,60,0.00,,,0.00,meteohub,2013-08-13 16:39:00,
2013-08-13 09:44:00,69.4,55.4,29.53,NE,45,4.0,6.0,61,0.00,,,0.00,meteohub,2013-08-13 16:44:00,
2013-08-13 09:49:00,70.0,55.9,29.53,East,90,4.0,6.0,61,0.00,,,0.00,meteohub,2013-08-13 16:49:00,
2013-08-13 09:54:00,70.9,56.3,29.53,East,90,3.0,6.0,60,0.00,,,0.00,meteohub,2013-08-13 16:54:00,
2013-08-13 10:00:00,70.5,55.6,29.53,SE,135,4.0,6.0,59,0.00,,,0.00,meteohub,2013-08-13 17:00:00,
2013-08-13 10:05:00,71.2,56.7,29.53,North,0,3.0,4.0,60,0.00,,,0.00,meteohub,2013-08-13 17:05:00,
2013-08-13 10:12:00,73.2,56.7,29.52,SW,225,2.0,4.0,56,0.00,,,0.00,meteohub,2013-08-13 17:12:00,
2013-08-13 10:17:00,74.1,56.5,29.52,East,90,3.0,4.0,54,0.00,,,0.00,meteohub,2013-08-13 17:17:00,
2013-08-13 10:22:00,74.3,56.7,29.52,North,0,4.0,4.0,54,0.00,,,0.00,meteohub,2013-08-13 17:22:00,
2013-08-13 10:27:00,73.9,56.3,29.51,NE,45,3.0,4.0,54,0.00,,,0.00,meteohub,2013-08-13 17:27:00,
2013-08-13 10:32:00,73.9,56.8,29.51,East,90,2.0,4.0,55,0.00,,,0.00,meteohub,2013-08-13 17:32:00,
2013-08-13 10:38:00,75.2,57.9,29.52,WNW,293,1.0,4.0,55,0.00,,,0.00,meteohub,2013-08-13 17:38:00,
2013-08-13 10:43:00,74.8,56.5,29.51,South,180,1.0,4.0,53,0.00,,,0.00,meteohub,2013-08-13 17:43:00,
2013-08-13 10:48:00,75.0,56.7,29.51,NW,315,4.0,5.0,53,0.00,,,0.00,meteohub,2013-08-13 17:48:00,
2013-08-13 10:53:00,75.4,56.5,29.51,North,0,2.0,5.0,52,0.00,,,0.00,meteohub,2013-08-13 17:53:00,
2013-08-13 10:58:00,76.3,57.4,29.51,East,90,4.0,5.0,52,0.00,,,0.00,meteohub,2013-08-13 17:58:00,
2013-08-13 11:03:00,75.4,56.5,29.51,NE,45,4.0,4.0,52,0.00,,,0.00,meteohub,2013-08-13 18:03:00,
2013-08-13 11:08:00,76.1,57.7,29.51,SE,135,3.0,6.0,53,0.00,,,0.00,meteohub,2013-08-13 18:08:00,
2013-08-13 11:13:00,77.2,58.3,29.51,North,0,2.0,6.0,52,0.00,,,0.00,meteohub,2013-08-13 18:13:00,
2013-08-13 11:18:00,77.4,56.7,29.50,NNE,23,5.0,5.0,49,0.00,,,0.00,meteohub,2013-08-13 18:18:00,
2013-08-13 11:23:00,77.0,57.0,29.50,North,0,6.0,6.0,50,0.00,,,0.00,meteohub,2013-08-13 18:23:00,
2013-08-13 11:28:00,76.5,57.0,29.50,North,0,4.0,5.0,51,0.00,,,0.00,meteohub,2013-08-13 18:28:00,
2013-08-13 11:33:00,76.3,56.8,29.50,North,0,6.0,6.0,51,0.00,,,0.00,meteohub,2013-08-13 18:33:00,
2013-08-13 11:38:00,76.3,57.4,29.50,East,90,4.0,6.0,52,0.00,,,0.00,meteohub,2013-08-13 18:38:00,
2013-08-13 11:43:00,76.5,58.1,29.50,North,0,3.0,6.0,53,0.00,,,0.00,meteohub,2013-08-13 18:43:00,
2013-08-13 11:48:00,76.5,57.6,29.49,SE,135,5.0,8.0,52,0.00,,,0.00,meteohub,2013-08-13 18:48:00,
2013-08-13 11:53:00,77.5,57.9,29.49,NE,45,6.0,8.0,51,0.00,,,0.00,meteohub,2013-08-13 18:53:00,
2013-08-13 11:58:00,77.7,57.0,29.49,NE,45,5.0,8.0,49,0.00,,,0.00,meteohub,2013-08-13 18:58:00,
2013-08-13 12:03:00,77.4,57.7,29.48,North,0,5.0,8.0,51,0.00,,,0.00,meteohub,2013-08-13 19:03:00,
2013-08-13 12:09:00,78.4,57.7,29.48,East,90,6.0,7.0,49,0.00,,,0.00,meteohub,2013-08-13 19:09:00,
2013-08-13 12:14:00,78.1,57.4,29.48,NE,45,5.0,7.0,49,0.00,,,0.00,meteohub,2013-08-13 19:14:00,
2013-08-13 12:19:00,78.8,57.4,29.48,East,90,4.0,7.0,48,0.00,,,0.00,meteohub,2013-08-13 19:19:00,
2013-08-13 12:24:00,79.2,57.2,29.48,East,90,4.0,7.0,47,0.00,,,0.00,meteohub,2013-08-13 19:24:00,
2013-08-13 12:29:00,79.9,57.2,29.48,North,0,4.0,7.0,46,0.00,,,0.00,meteohub,2013-08-13 19:29:00,
2013-08-13 12:34:00,80.1,58.1,29.48,NE,45,3.0,8.0,47,0.00,,,0.00,meteohub,2013-08-13 19:34:00,
2013-08-13 12:39:00,80.6,57.9,29.47,East,90,4.0,8.0,46,0.00,,,0.00,meteohub,2013-08-13 19:39:00,
2013-08-13 12:44:00,81.9,57.2,29.48,East,90,8.0,8.0,43,0.00,,,0.00,meteohub,2013-08-13 19:44:00,
2013-08-13 12:49:00,81.5,58.1,29.47,NE,45,4.0,8.0,45,0.00,,,0.00,meteohub,2013-08-13 19:49:00,
2013-08-13 12:54:00,82.2,57.6,29.47,NE,45,6.0,8.0,43,0.00,,,0.00,meteohub,2013-08-13 19:54:00,
2013-08-13 12:59:00,81.7,57.0,29.47,East,90,7.0,8.0,43,0.00,,,0.00,meteohub,2013-08-13 19:59:00,
2013-08-13 13:04:00,82.0,57.9,29.47,North,0,5.0,7.0,44,0.00,,,0.00,meteohub,2013-08-13 20:04:00,
2013-08-13 13:09:00,82.2,57.6,29.46,NE,45,2.0,7.0,43,0.00,,,0.00,meteohub,2013-08-13 20:09:00,
2013-08-13 13:14:00,80.6,56.7,29.46,NE,45,4.0,7.0,44,0.00,,,0.00,meteohub,2013-08-13 20:14:00,
2013-08-13 13:19:00,80.6,56.7,29.46,NE,45,5.0,8.0,44,0.00,,,0.00,meteohub,2013-08-13 20:19:00,
2013-08-13 13:24:00,82.4,57.7,29.46,NE,45,3.0,8.0,43,0.00,,,0.00,meteohub,2013-08-13 20:24:00,
2013-08-13 13:29:00,84.0,57.0,29.46,NE,45,3.0,8.0,40,0.00,,,0.00,meteohub,2013-08-13 20:29:00,
2013-08-13 13:34:00,84.0,55.8,29.46,NE,45,5.0,8.0,38,0.00,,,0.00,meteohub,2013-08-13 20:34:00,
2013-08-13 13:39:00,83.5,55.2,29.45,NE,45,4.0,8.0,38,0.00,,,0.00,meteohub,2013-08-13 20:39:00,
2013-08-13 13:44:00,84.4,53.8,29.45,East,90,4.0,7.0,35,0.00,,,0.00,meteohub,2013-08-13 20:44:00,
2013-08-13 13:49:00,84.4,55.2,29.45,NE,45,3.0,7.0,37,0.00,,,0.00,meteohub,2013-08-13 20:49:00,
2013-08-13 13:55:00,85.1,54.3,29.45,East,90,3.0,7.0,35,0.00,,,0.00,meteohub,2013-08-13 20:55:00,
2013-08-13 14:00:00,84.9,54.1,29.45,NE,45,2.0,7.0,35,0.00,,,0.00,meteohub,2013-08-13 21:00:00,
2013-08-13 14:05:00,85.5,56.3,29.45,SW,225,3.0,7.0,37,0.00,,,0.00,meteohub,2013-08-13 21:05:00,
2013-08-13 14:10:00,86.0,52.7,29.45,East,90,4.0,5.0,32,0.00,,,0.00,meteohub,2013-08-13 21:10:00,
2013-08-13 14:15:00,86.4,53.8,29.44,NE,45,3.0,5.0,33,0.00,,,0.00,meteohub,2013-08-13 21:15:00,
2013-08-13 14:20:00,86.7,51.6,29.44,East,90,5.0,5.0,30,0.00,,,0.00,meteohub,2013-08-13 21:20:00,
2013-08-13 14:25:00,86.2,52.0,29.44,East,90,5.0,6.0,31,0.00,,,0.00,meteohub,2013-08-13 21:25:00,
2013-08-13 14:30:00,86.2,52.0,29.44,NE,45,6.0,7.0,31,0.00,,,0.00,meteohub,2013-08-13 21:30:00,
2013-08-13 14:35:00,85.3,52.2,29.44,North,0,3.0,7.0,32,0.00,,,0.00,meteohub,2013-08-13 21:35:00,
2013-08-13 14:40:00,86.7,52.5,29.44,North,0,4.0,7.0,31,0.00,,,0.00,meteohub,2013-08-13 21:40:00,
2013-08-13 14:45:00,87.3,52.9,29.43,NE,45,2.0,7.0,31,0.00,,,0.00,meteohub,2013-08-13 21:45:00,
2013-08-13 14:50:00,88.3,53.1,29.43,NE,45,2.0,5.0,30,0.00,,,0.00,meteohub,2013-08-13 21:50:00,
2013-08-13 14:55:00,87.6,52.3,29.43,North,0,4.0,6.0,30,0.00,,,0.00,meteohub,2013-08-13 21:55:00,
2013-08-13 15:00:00,87.3,52.0,29.43,NE,45,4.0,6.0,30,0.00,,,0.00,meteohub,2013-08-13 22:00:00,
2013-08-13 15:05:00,87.8,52.5,29.42,North,0,3.0,6.0,30,0.00,,,0.00,meteohub,2013-08-13 22:05:00,
2013-08-13 15:10:00,88.7,52.3,29.42,North,0,2.0,6.0,29,0.00,,,0.00,meteohub,2013-08-13 22:10:00,
2013-08-13 15:15:00,90.0,53.4,29.42,North,0,4.0,5.0,29,0.00,,,0.00,meteohub,2013-08-13 22:15:00,
2013-08-13 15:20:00,89.6,51.3,29.42,NE,45,7.0,7.0,27,0.00,,,0.00,meteohub,2013-08-13 22:20:00,
2013-08-13 15:25:00,89.1,51.8,29.42,North,0,3.0,7.0,28,0.00,,,0.00,meteohub,2013-08-13 22:25:00,
2013-08-13 15:30:00,90.5,52.0,29.42,North,0,2.0,7.0,27,0.00,,,0.00,meteohub,2013-08-13 22:30:00,
2013-08-13 15:36:00,91.9,51.1,29.41,North,0,3.0,7.0,25,0.00,,,0.00,meteohub,2013-08-13 22:36:00,
2013-08-13 15:41:00,91.0,51.4,29.41,North,0,3.0,4.0,26,0.00,,,0.00,meteohub,2013-08-13 22:41:00,
2013-08-13 15:46:00,89.8,51.3,29.41,NE,45,3.0,6.0,27,0.00,,,0.00,meteohub,2013-08-13 22:46:00,
2013-08-13 15:51:00,90.1,52.7,29.41,NE,45,2.0,6.0,28,0.00,,,0.00,meteohub,2013-08-13 22:51:00,
2013-08-13 15:56:00,91.2,52.5,29.41,East,90,4.0,6.0,27,0.00,,,0.00,meteohub,2013-08-13 22:56:00,
2013-08-13 16:01:00,90.7,52.2,29.41,North,0,4.0,5.0,27,0.00,,,0.00,meteohub,2013-08-13 23:01:00,
2013-08-13 16:06:00,91.8,52.0,29.40,NE,45,3.0,5.0,26,0.00,,,0.00,meteohub,2013-08-13 23:06:00,
2013-08-13 16:11:00,91.9,51.1,29.40,East,90,4.0,5.0,25,0.00,,,0.00,meteohub,2013-08-13 23:11:00,
2013-08-13 16:16:00,91.4,50.7,29.40,North,0,4.0,4.0,25,0.00,,,0.00,meteohub,2013-08-13 23:16:00,
2013-08-13 16:21:00,91.6,51.8,29.40,NE,45,3.0,4.0,26,0.00,,,0.00,meteohub,2013-08-13 23:21:00,
2013-08-13 16:26:00,91.8,52.0,29.40,North,0,2.0,4.0,26,0.00,,,0.00,meteohub,2013-08-13 23:26:00,
2013-08-13 16:31:00,92.8,52.9,29.39,NW,315,1.0,4.0,26,0.00,,,0.00,meteohub,2013-08-13 23:31:00,
2013-08-13 16:36:00,92.5,51.6,29.39,NE,45,2.0,6.0,25,0.00,,,0.00,meteohub,2013-08-13 23:36:00,
2013-08-13 16:41:00,91.9,51.1,29.39,NE,45,5.0,6.0,25,0.00,,,0.00,meteohub,2013-08-13 23:41:00,
2013-08-13 16:46:00,91.0,51.4,29.39,NE,45,2.0,6.0,26,0.00,,,0.00,meteohub,2013-08-13 23:46:00,
2013-08-13 16:51:00,91.2,50.5,29.39,NE,45,4.0,6.0,25,0.00,,,0.00,meteohub,2013-08-13 23:51:00,
2013-08-13 16:56:00,91.9,52.2,29.39,SE,135,2.0,6.0,26,0.00,,,0.00,meteohub,2013-08-13 23:56:00,
2013-08-13 17:01:00,92.5,51.6,29.39,East,90,4.0,4.0,25,0.00,,,0.00,meteohub,2013-08-14 00:01:00,
2013-08-13 17:06:00,92.1,50.2,29.39,North,0,4.0,4.0,24,0.00,,,0.00,meteohub,2013-08-14 00:06:00,
2013-08-13 17:11:00,92.5,50.4,29.39,NE,45,4.0,4.0,24,0.00,,,0.00,meteohub,2013-08-14 00:11:00,
2013-08-13 17:16:00,92.7,50.5,29.39,SW,225,2.0,4.0,24,0.00,,,0.00,meteohub,2013-08-14 00:16:00,
2013-08-13 17:21:00,94.1,49.5,29.39,NE,45,4.0,4.0,22,0.00,,,0.00,meteohub,2013-08-14 00:21:00,
2013-08-13 17:27:00,93.6,50.2,29.39,North,0,4.0,4.0,23,0.00,,,0.00,meteohub,2013-08-14 00:27:00,
2013-08-13 17:32:00,92.7,50.5,29.39,North,0,3.0,4.0,24,0.00,,,0.00,meteohub,2013-08-14 00:32:00,
2013-08-13 17:37:00,92.7,49.5,29.39,NE,45,4.0,4.0,23,0.00,,,0.00,meteohub,2013-08-14 00:37:00,
2013-08-13 17:42:00,93.2,48.7,29.38,North,0,4.0,4.0,22,0.00,,,0.00,meteohub,2013-08-14 00:42:00,
2013-08-13 17:47:00,92.5,48.0,29.38,NE,45,3.0,4.0,22,0.00,,,0.00,meteohub,2013-08-14 00:47:00,
2013-08-13 17:52:00,91.6,49.6,29.38,North,0,4.0,5.0,24,0.00,,,0.00,meteohub,2013-08-14 00:52:00,
2013-08-13 17:57:00,91.9,48.9,29.38,NE,45,4.0,7.0,23,0.00,,,0.00,meteohub,2013-08-14 00:57:00,
2013-08-13 18:02:00,91.9,48.9,29.38,North,0,4.0,7.0,23,0.00,,,0.00,meteohub,2013-08-14 01:02:00,
2013-08-13 18:07:00,92.3,49.1,29.39,NE,45,3.0,7.0,23,0.00,,,0.00,meteohub,2013-08-14 01:07:00,
2013-08-13 18:12:00,91.6,48.6,29.38,NE,45,3.0,4.0,23,0.00,,,0.00,meteohub,2013-08-14 01:12:00,
2013-08-13 18:17:00,91.0,48.0,29.38,North,0,2.0,4.0,23,0.00,,,0.00,meteohub,2013-08-14 01:17:00,
2013-08-13 18:22:00,91.0,49.3,29.37,NE,45,2.0,4.0,24,0.00,,,0.00,meteohub,2013-08-14 01:22:00,
2013-08-13 18:27:00,91.2,48.2,29.37,East,90,2.0,4.0,23,0.00,,,0.00,meteohub,2013-08-14 01:27:00,
2013-08-13 18:32:00,90.7,48.9,29.38,East,90,4.0,4.0,24,0.00,,,0.00,meteohub,2013-08-14 01:32:00,
2013-08-13 18:37:00,90.3,49.6,29.38,NE,45,2.0,4.0,25,0.00,,,0.00,meteohub,2013-08-14 01:37:00,
2013-08-13 18:42:00,91.4,52.7,29.37,North,0,0.0,5.0,27,0.00,,,0.00,meteohub,2013-08-14 01:42:00,
2013-08-13 18:47:00,92.1,48.9,29.37,East,90,2.0,5.0,23,0.00,,,0.00,meteohub,2013-08-14 01:47:00,
2013-08-13 18:52:00,89.6,49.1,29.37,North,0,2.0,3.0,25,0.00,,,0.00,meteohub,2013-08-14 01:52:00,
2013-08-13 18:57:00,87.6,52.3,29.37,SW,225,0.0,4.0,30,0.00,,,0.00,meteohub,2013-08-14 01:57:00,
2013-08-13 19:02:00,86.0,52.7,29.37,West,270,0.0,4.0,32,0.00,,,0.00,meteohub,2013-08-14 02:02:00,
2013-08-13 19:07:00,84.7,53.2,29.37,West,270,1.0,4.0,34,0.00,,,0.00,meteohub,2013-08-14 02:07:00,
2013-08-13 19:12:00,83.8,52.5,29.37,North,0,1.0,2.0,34,0.00,,,0.00,meteohub,2013-08-14 02:12:00,
2013-08-13 19:17:00,82.8,55.2,29.37,SW,225,4.0,4.0,39,0.00,,,0.00,meteohub,2013-08-14 02:17:00,
2013-08-13 19:22:00,81.0,55.8,29.37,SW,225,2.0,4.0,42,0.00,,,0.00,meteohub,2013-08-14 02:22:00,
2013-08-13 19:27:00,79.9,55.9,29.37,SW,225,2.0,4.0,44,0.00,,,0.00,meteohub,2013-08-14 02:27:00,
2013-08-13 19:32:00,79.0,56.5,29.37,South,180,3.0,4.0,46,0.00,,,0.00,meteohub,2013-08-14 02:32:00,
2013-08-13 19:37:00,78.1,56.8,29.37,South,180,4.0,4.0,48,0.00,,,0.00,meteohub,2013-08-14 02:37:00,
2013-08-13 19:42:00,77.2,56.5,29.37,SW,225,3.0,4.0,49,0.00,,,0.00,meteohub,2013-08-14 02:42:00,
2013-08-13 19:47:00,76.5,56.5,29.36,SW,225,2.0,4.0,50,0.00,,,0.00,meteohub,2013-08-14 02:47:00,
2013-08-13 19:52:00,75.7,56.8,29.36,SW,225,2.0,4.0,52,0.00,,,0.00,meteohub,2013-08-14 02:52:00,
2013-08-13 19:57:00,74.8,56.5,29.36,SW,225,4.0,4.0,53,0.00,,,0.00,meteohub,2013-08-14 02:57:00,
2013-08-13 20:02:00,74.5,56.7,29.36,SW,225,3.0,4.0,54,0.00,,,0.00,meteohub,2013-08-14 03:02:00,
2013-08-13 20:07:00,74.1,56.8,29.37,SE,135,2.0,4.0,55,0.00,,,0.00,meteohub,2013-08-14 03:07:00,
2013-08-13 20:12:00,73.8,56.7,29.36,SW,225,3.0,4.0,55,0.00,,,0.00,meteohub,2013-08-14 03:12:00,
2013-08-13 20:17:00,73.4,56.7,29.37,SW,225,3.0,3.0,56,0.00,,,0.00,meteohub,2013-08-14 03:17:00,
2013-08-13 20:22:00,73.0,56.5,29.36,SW,225,4.0,4.0,56,0.00,,,0.00,meteohub,2013-08-14 03:22:00,
2013-08-13 20:27:00,72.9,56.3,29.37,SW,225,2.0,4.0,56,0.00,,,0.00,meteohub,2013-08-14 03:27:00,
2013-08-13 20:32:00,72.7,56.1,29.37,SW,225,3.0,4.0,56,0.00,,,0.00,meteohub,2013-08-14 03:32:00,
2013-08-13 20:37:00,72.3,55.8,29.37,SW,225,4.0,4.0,56,0.00,,,0.00,meteohub,2013-08-14 03:37:00,
2013-08-13 20:43:00,72.1,55.6,29.37,South,180,3.0,6.0,56,0.00,,,0.00,meteohub,2013-08-14 03:43:00,
2013-08-13 20:48:00,72.0,54.9,29.37,West,270,4.0,6.0,55,0.00,,,0.00,meteohub,2013-08-14 03:48:00,
2013-08-13 20:53:00,71.8,55.2,29.37,South,180,4.0,6.0,56,0.00,,,0.00,meteohub,2013-08-14 03:53:00,
2013-08-13 20:58:00,71.4,54.9,29.37,South,180,4.0,6.0,56,0.00,,,0.00,meteohub,2013-08-14 03:58:00,
2013-08-13 21:01:00,71.2,55.2,29.37,SW,225,4.0,6.0,57,0.00,,,0.00,meteohub,2013-08-14 04:01:00,
2013-08-13 21:02:00,71.2,55.2,29.37,SW,225,4.0,6.0,57,0.00,,,0.00,meteohub,2013-08-14 04:02:00,
2013-08-13 21:05:00,71.2,55.2,29.37,SW,225,4.0,6.0,57,0.00,,,0.00,meteohub,2013-08-14 04:05:00,
2013-08-13 21:10:00,71.1,55.0,29.37,SW,225,4.0,6.0,57,0.00,,,0.00,meteohub,2013-08-14 04:10:00,
2013-08-13 21:15:00,71.1,55.0,29.37,South,180,4.0,6.0,57,0.00,,,0.00,meteohub,2013-08-14 04:15:00,
2013-08-13 21:20:00,70.9,54.9,29.38,SW,225,4.0,7.0,57,0.00,,,0.00,meteohub,2013-08-14 04:20:00,
2013-08-13 21:25:00,70.7,55.2,29.37,SW,225,4.0,7.0,58,0.00,,,0.00,meteohub,2013-08-14 04:25:00,
2013-08-13 21:30:00,70.3,55.4,29.37,South,180,4.0,7.0,59,0.00,,,0.00,meteohub,2013-08-14 04:30:00,
2013-08-13 21:35:00,70.2,55.2,29.38,SW,225,4.0,7.0,59,0.00,,,0.00,meteohub,2013-08-14 04:35:00,
2013-08-13 21:40:00,70.2,55.2,29.37,SW,225,5.0,6.0,59,0.00,,,0.00,meteohub,2013-08-14 04:40:00,
2013-08-13 21:45:00,70.2,55.2,29.38,SSW,203,4.0,5.0,59,0.00,,,0.00,meteohub,2013-08-14 04:45:00,
2013-08-13 21:50:00,70.0,55.0,29.38,South,180,4.0,5.0,59,0.00,,,0.00,meteohub,2013-08-14 04:50:00,
2013-08-13 21:55:00,70.0,55.0,29.38,SE,135,4.0,5.0,59,0.00,,,0.00,meteohub,2013-08-14 04:55:00,
2013-08-13 22:00:00,69.8,54.9,29.38,SW,225,5.0,5.0,59,0.00,,,0.00,meteohub,2013-08-14 05:00:00,
2013-08-13 22:05:00,69.8,54.9,29.38,SW,225,5.0,5.0,59,0.00,,,0.00,meteohub,2013-08-14 05:05:00,
2013-08-13 22:10:00,69.8,54.9,29.38,SW,225,4.0,8.0,59,0.00,,,0.00,meteohub,2013-08-14 05:10:00,
2013-08-13 22:15:00,69.8,54.3,29.38,SW,225,4.0,8.0,58,0.00,,,0.00,meteohub,2013-08-14 05:15:00,
2013-08-13 22:20:00,69.8,54.0,29.38,West,270,5.0,7.0,57,0.00,,,0.00,meteohub,2013-08-14 05:20:00,
2013-08-13 22:26:00,70.0,53.6,29.38,SW,225,4.0,7.0,56,0.00,,,0.00,meteohub,2013-08-14 05:26:00,
2013-08-13 22:31:00,70.0,53.6,29.38,SW,225,4.0,7.0,56,0.00,,,0.00,meteohub,2013-08-14 05:31:00,
2013-08-13 22:36:00,70.0,53.6,29.38,SW,225,4.0,6.0,56,0.00,,,0.00,meteohub,2013-08-14 05:36:00,
2013-08-13 22:41:00,70.0,53.6,29.38,South,180,4.0,6.0,56,0.00,,,0.00,meteohub,2013-08-14 05:41:00,
2013-08-13 22:46:00,70.2,53.8,29.38,SW,225,3.0,5.0,56,0.00,,,0.00,meteohub,2013-08-14 05:46:00,
2013-08-13 22:51:00,70.2,53.8,29.38,SW,225,4.0,5.0,56,0.00,,,0.00,meteohub,2013-08-14 05:51:00,
2013-08-13 22:56:00,70.3,54.0,29.38,SW,225,4.0,5.0,56,0.00,,,0.00,meteohub,2013-08-14 05:56:00,
2013-08-13 23:01:00,70.2,53.8,29.38,SW,225,4.0,5.0,56,0.00,,,0.00,meteohub,2013-08-14 06:01:00,
2013-08-13 23:06:00,70.2,53.8,29.38,SW,225,3.0,4.0,56,0.00,,,0.00,meteohub,2013-08-14 06:06:00,
2013-08-13 23:11:00,70.2,53.2,29.39,SW,225,3.0,8.0,55,0.00,,,0.00,meteohub,2013-08-14 06:11:00,
2013-08-13 23:16:00,70.2,52.7,29.38,SW,225,2.0,8.0,54,0.00,,,0.00,meteohub,2013-08-14 06:16:00,
2013-08-13 23:21:00,70.2,52.7,29.38,SW,225,4.0,8.0,54,0.00,,,0.00,meteohub,2013-08-14 06:21:00,
2013-08-13 23:26:00,70.2,52.7,29.39,SW,225,3.0,6.0,54,0.00,,,0.00,meteohub,2013-08-14 06:26:00,
2013-08-13 23:31:00,70.2,52.2,29.38,SW,225,4.0,6.0,53,0.00,,,0.00,meteohub,2013-08-14 06:31:00,
2013-08-13 23:36:00,70.0,52.0,29.39,SW,225,4.0,5.0,53,0.00,,,0.00,meteohub,2013-08-14 06:36:00,
2013-08-13 23:41:00,70.2,51.8,29.39,SW,225,2.0,5.0,52,0.00,,,0.00,meteohub,2013-08-14 06:41:00,
2013-08-13 23:46:00,69.8,52.0,29.39,East,90,2.0,5.0,53,0.00,,,0.00,meteohub,2013-08-14 06:46:00,
2013-08-13 23:51:00,69.3,52.0,29.39,NE,45,2.0,5.0,54,0.00,,,0.00,meteohub,2013-08-14 06:51:00,
2013-08-13 23:56:00,68.9,52.5,29.39,NE,45,2.0,3.0,56,0.00,,,0.00,meteohub,2013-08-14 06:56:00,